Incline Creek, Nevada Weather observations

Data are for observation ending at time listed.
 Day   Time    Ave.   Ave.  Ave.  Vector   Max.   Stn.    Total    Solar   Ave.   Snow 
  of    of     Air    Rel.  Wind   Wind    Wind   Baro.  Precip.   Rad.    Soil   Depth
Year   Day     Temp.  Hum.  Speed  Dir.    Gust   Pres.                    Temp.       
2014   (PST)    F      %     mph   deg.    mph     mb.     in.     W/m2     F      in. 
---------------------------------------------------------------------------------------  
 328   22:20   27.4    68    1.7    32      2.2   999.0    0.00       0    999.0    0.0
 328   22:30   27.4    68    1.7    30      2.9   999.0    0.00       0    999.0    0.0
 328   22:40   27.4    68    1.7    35      3.2   999.0    0.00       0    999.0    0.0
 328   22:50   27.2    70    1.6    30      2.4   999.0    0.00       0    999.0    0.0
 328   23:00   27.3    70    1.9    26      2.9   999.0    0.00       0    999.0    0.0
 328   23:10   27.3    72    2.2    28      3.5   999.0    0.00       0    999.0    0.0
 328   23:20   27.4    73    2.0    27      3.2   999.0    0.00       0    999.0    0.0
 328   23:30   27.3    75    1.9    34      3.3   999.0    0.00       0    999.0    0.0
 328   23:40   27.2    75    1.4    31      2.1   999.0    0.00       0    999.0    0.0
 328   23:50   27.2    77    1.8    28      3.6   999.0    0.00       0    999.0    0.0
 329    0:00   27.2    78    1.8    35      2.6   999.0    0.00       0    999.0    0.0
 329    0:10   27.2    79    1.8    31      2.7   999.0    0.00       0    999.0    0.0
 329    0:20   27.1    81    1.9    31      2.5   999.0    0.00       0    999.0    0.0
 329    0:30   27.3    82    2.5    25      3.7   999.0    0.00       0    999.0    0.0
 329    0:40   27.2    81    2.1    30      3.2   999.0    0.00       0    999.0    0.0
 329    0:50   27.2    83    2.2    25      3.6   999.0    0.00       0    999.0    0.0
 329    1:00   27.1    82    1.4    29      3.1   999.0    0.00       0    999.0    0.0
 329    1:10   27.2    84    2.0    20      3.8   999.0    0.00       0    999.0    0.0
 329    1:20   27.1    84    2.1    27      3.4   999.0    0.00       0    999.0    0.0
 329    1:30   27.1    83    2.2    25      3.9   999.0    0.00       0    999.0    0.0
 329    1:40   27.1    81    1.8    37      3.1   999.0    0.00       0    999.0    0.0
 329    1:50   26.9    81    2.0    31      3.4   999.0    0.00       0    999.0    0.0
 329    2:00   26.9    80    2.2    33      3.5   999.0    0.00       0    999.0    0.0
 329    2:10   26.8    80    1.8    36      2.6   999.0    0.00       0    999.0    0.0
 329    2:20   26.7    80    1.9    37      2.5   999.0    0.00       0    999.0    0.0
 329    2:30   26.8    82    2.4    22      3.7   999.0    0.00       0    999.0    0.0
 329    2:40   26.7    83    2.1    32      3.6   999.0    0.00       0    999.0    0.0
 329    2:50   26.5    83    1.9    36      2.5   999.0    0.00       0    999.0    0.0
 329    3:00   26.6    84    2.0    33      3.5   999.0    0.00       0    999.0    0.0
 329    3:10   26.7    84    2.2    30      3.7   999.0    0.00       0    999.0    0.0
 329    3:20   26.6    84    1.7    34      2.1   999.0    0.00       0    999.0    0.0
 329    3:30   26.6    86    2.0    34      3.3   999.0    0.00       0    999.0    0.0
 329    3:40   26.5    86    1.8    38      2.4   999.0    0.00       0    999.0    0.0
 329    3:50   26.5    87    1.8    30      2.8   999.0    0.00       0    999.0    0.0
 329    4:00   26.6    88    2.1    29      3.6   999.0    0.00       0    999.0    0.0
 329    4:10   26.6    89    1.8    31      2.7   999.0    0.00       0    999.0    0.0
 329    4:20   26.8    92    2.8    26      4.1   999.0    0.00       0    999.0    0.0
 329    4:30   27.0    93    2.3    25      3.6   999.0    0.00       0    999.0    0.0
 329    4:40   26.7    91    1.7    29      2.3   999.0    0.00       0    999.0    0.0
 329    4:50   26.7    92    2.2    24      3.9   999.0    0.00       0    999.0    0.0
 329    5:00   27.0    91    2.3    32      3.7   999.0    0.00       0    999.0    0.0
 329    5:10   26.9    91    2.3    30      3.8   999.0    0.00       0    999.0    0.0
 329    5:20   26.9    91    2.4    27      3.9   999.0    0.00       0    999.0    0.0
 329    5:30   27.1    90    2.5    22      4.1   999.0    0.00       0    999.0    0.0
 329    5:40   27.3    87    2.5    24      5.0   999.0    0.00       0    999.0    0.0
 329    5:50   27.0    88    2.1    32      3.6   999.0    0.00       0    999.0    0.0
 329    6:00   27.0    87    1.7    32      2.3   999.0    0.00       0    999.0    0.0
 329    6:10   27.1    87    1.9    26      2.7   999.0    0.00       0    999.0    0.0
 329    6:20   27.1    86    2.0    27      2.9   999.0    0.00       0    999.0    0.0
 329    6:30   27.2    86    1.9    28      2.7   999.0    0.00       1    999.0    0.0
 329    6:40   27.0    86    1.9    36      2.9   999.0    0.00       2    999.0    0.0
 329    6:50   27.0    86    1.8    27      3.6   999.0    0.00       5    999.0    0.0
 329    7:00   27.1    86    1.8    33      2.5   999.0    0.00       7    999.0    0.0
 329    7:10   27.1    86    1.9    32      3.6   999.0    0.00       9    999.0    0.0
 329    7:20   27.2    86    2.2    34      3.2   999.0    0.00      10    999.0    0.0
 329    7:30   27.4    86    1.9    30      3.3   999.0    0.00      11    999.0    0.0
 329    7:40   27.5    85    1.7     9      2.7   999.0    0.00      12    999.0    0.0
 329    7:50   27.6    85    1.7    28      2.6   999.0    0.00      13    999.0    0.0
 329    8:00   27.8    84    1.9    16      2.9   999.0    0.00      26    999.0    0.0
 329    8:10   28.7    82    1.5    26      2.3   999.0    0.00     215    999.0    0.0
 329    8:20   29.9    79    1.6    33      2.1   999.0    0.00     245    999.0    0.0
 329    8:30   31.3    76    1.1    27      1.6   999.0    0.00     271    999.0    0.0
 329    8:40   33.0    74    0.9    20      1.8   999.0    0.00     295    999.0    0.0
 329    8:50   34.8    71    0.6    25      2.4   999.0    0.00     320    999.0    0.0
 329    9:00   37.1    70    0.2    84      0.8   999.0    0.00     343    999.0    0.0
 329    9:10   39.6    68    0.4    63      1.3   999.0    0.00     365    999.0    0.0
 329    9:20   41.9    66    0.8   164      2.2   999.0    0.00     386    999.0    0.0
 329    9:30   43.6    65    1.1   162      2.5   999.0    0.00     407    999.0    0.0
 329    9:40   43.9    62    1.9   156      2.8   999.0    0.00     426    999.0    0.0
 329    9:50   45.3    60    1.1   152      2.8   999.0    0.00     443    999.0    0.0
 329   10:00   45.6    62    3.2   146      6.2   999.0    0.00     459    999.0    0.0
 329   10:10   45.7    61    3.3   138      4.9   999.0    0.00     473    999.0    0.0
 329   10:20   46.0    58    4.4   147      7.2   999.0    0.00     486    999.0    0.0
 329   10:30   46.5    60    3.4   134      5.8   999.0    0.00     499    999.0    0.0
 329   10:40   47.0    59    3.3   152      5.4   999.0    0.00     508    999.0    0.0
 329   10:50   47.4    56    3.5   139      5.8   999.0    0.00     516    999.0    0.0
 329   11:00   48.0    54    2.9   148      5.4   999.0    0.00     524    999.0    0.0
 329   11:10   49.2    50    1.9   112      4.2   999.0    0.00     530    999.0    0.0
 329   11:20   49.7    48    3.0   153      6.2   999.0    0.00     534    999.0    0.0
 329   11:30   50.1    46    3.4   158      6.0   999.0    0.00     536    999.0    0.0
 329   11:40   50.7    44    3.3   143      6.6   999.0    0.00     537    999.0    0.0
 329   11:50   50.6    40    4.0   150      7.2   999.0    0.00     536    999.0    0.0
 329   12:00   51.1    37    3.7   146      6.4   999.0    0.00     533    999.0    0.0
 329   12:10   51.2    38    3.0   150      7.0   999.0    0.00     528    999.0    0.0
 329   12:20   52.2    35    3.6   154      9.4   999.0    0.00     522    999.0    0.0
 329   12:30   51.5    36    4.7   160      7.8   999.0    0.00     514    999.0    0.0
 329   12:40   51.9    35    4.7   145      7.2   999.0    0.00     505    999.0    0.0
 329   12:50   52.4    35    3.9   152      6.7   999.0    0.00     494    999.0    0.0
 329   13:00   52.8    36    4.6   159      6.9   999.0    0.00     481    999.0    0.0
 329   13:10   52.2    37    4.4   156      8.1   999.0    0.00     466    999.0    0.0
 329   13:20   52.2    38    4.0   157      6.9   999.0    0.00     451    999.0    0.0
 329   13:30   52.1    38    4.3   147      7.2   999.0    0.00     434    999.0    0.0
 329   13:40   52.3    38    3.5   161      6.4   999.0    0.00     416    999.0    0.0
 329   13:50   52.9    40    3.2   164      5.7   999.0    0.00     396    999.0    0.0
 329   14:00   52.7    40    2.9   151      5.5   999.0    0.00     375    999.0    0.0
 329   14:10   53.6    39    2.7   155      5.7   999.0    0.00     353    999.0    0.0
 329   14:20   54.2    39    2.5   153      5.2   999.0    0.00     330    999.0    0.0
 329   14:30   53.7    38    2.7   166      6.4   999.0    0.00     306    999.0    0.0
 329   14:40   53.9    38    1.7   197      4.8   999.0    0.00     280    999.0    0.0
 329   14:50   53.7    37    1.9   200      4.3   999.0    0.00     190    999.0    0.0
 329   15:00   51.8    41    1.4   213      2.4   999.0    0.00      24    999.0    0.0
 329   15:10   50.5    42    1.7   243      3.8   999.0    0.00      28    999.0    0.0
 329   15:20   49.2    45    2.1   284      3.2   999.0    0.00      19    999.0    0.0
 329   15:30   48.3    46    2.1   285      3.6   999.0    0.00      17    999.0    0.0
 329   15:40   47.6    47    1.8   297      2.9   999.0    0.00      15    999.0    0.0
 329   15:50   46.7    48    2.7   313      4.6   999.0    0.00      14    999.0    0.0
 329   16:00   45.5    51    1.4   342      2.4   999.0    0.00      12    999.0    0.0
 329   16:10   43.9    54    1.2     8      2.0   999.0    0.00       9    999.0    0.0
 329   16:20   43.1    55    2.2   342      3.4   999.0    0.00       6    999.0    0.0
 329   16:30   41.9    59    1.9    32      2.9   999.0    0.00       3    999.0    0.0
 329   16:40   40.6    62    2.1    19      2.9   999.0    0.00       1    999.0    0.0
 329   16:50   39.7    63    1.7    31      2.5   999.0    0.00       0    999.0    0.0
 329   17:00   38.8    65    2.2    36      2.7   999.0    0.00       0    999.0    0.0
 329   17:10   38.0    66    2.0    28      3.2   999.0    0.00       0    999.0    0.0
 329   17:20   37.6    66    2.0    35      2.6   999.0    0.00       0    999.0    0.0
 329   17:30   37.2    67    2.4    21      3.7   999.0    0.00       0    999.0    0.0
 329   17:40   36.8    67    1.6    19      3.0   999.0    0.00       0    999.0    0.0
 329   17:50   36.8    66    2.5    24      4.7   999.0    0.00       0    999.0    0.0
 329   18:00   36.5    65    2.0    14      2.9   999.0    0.00       0    999.0    0.0
 329   18:10   36.0    66    2.1    32      3.4   999.0    0.00       0    999.0    0.0
 329   18:20   35.8    66    2.7    24      3.8   999.0    0.00       0    999.0    0.0
 329   18:30   35.3    66    2.3    36      3.2   999.0    0.00       0    999.0    0.0
 329   18:40   35.4    66    2.2    20      4.2   999.0    0.00       0    999.0    0.0
 329   18:50   35.2    67    2.4    24      4.3   999.0    0.00       0    999.0    0.0
 329   19:00   35.0    69    2.3    28      3.2   999.0    0.00       0    999.0    0.0
 329   19:10   35.1    69    2.4     7      3.5   999.0    0.00       0    999.0    0.0
 329   19:20   35.0    70    2.3    22      3.9   999.0    0.00       0    999.0    0.0
 329   19:30   34.9    71    2.2    23      3.0   999.0    0.00       0    999.0    0.0
 329   19:40   34.9    72    2.2    15      3.7   999.0    0.00       0    999.0    0.0
 329   19:50   34.8    73    2.3    24      2.9   999.0    0.00       0    999.0    0.0
 329   20:00   34.6    74    2.2    21      3.8   999.0    0.00       0    999.0    0.0
 329   20:10   34.5    75    2.2    26      2.9   999.0    0.00       0    999.0    0.0
 329   20:20   34.6    76    2.2    24      3.1   999.0    0.00       0    999.0    0.0
 329   20:30   34.5    77    2.1    23      3.6   999.0    0.00       0    999.0    0.0
 329   20:40   34.6    78    2.0    10      2.8   999.0    0.00       0    999.0    0.0
 329   20:50   34.5    78    2.3     3      3.6   999.0    0.00       0    999.0    0.0
 329   21:00   34.6    78    2.0    34      2.6   999.0    0.00       0    999.0    0.0
 329   21:10   33.9    80    2.1    30      2.5   999.0    0.00       0    999.0    0.0
 329   21:20   33.8    81    2.0    23      2.8   999.0    0.00       0    999.0    0.0
 329   21:30   33.8    80    2.0    36      2.6   999.0    0.00       0    999.0    0.0
 329   21:40   33.6    80    1.9    31      2.7   999.0    0.00       0    999.0    0.0
 329   21:50   33.5    80    1.9    33      2.6   999.0    0.00       0    999.0    0.0
 329   22:00   33.4    79    2.0    35      2.7   999.0    0.00       0    999.0    0.0
 329   22:10   33.1    80    1.9    34      2.5   999.0    0.00       0    999.0    0.0

Return to Incline Creek graphs page.


Western Regional Climate Center,wrcc@dri.edu